Time;durP1;ratioP1;P1;durP2;ratioP2;P2;SDS_P1;SDS_P2;PMS_P1;PMS_P2;Temp;Humidity;BMP_temperature;BMP_pressure;BME280_temperature;BME280_humidity;BME280_pressure;Samples;Min_cycle;Max_cycle;Signal;HPM_P1;HPM_P2
2023/03/01 04:53:11;;;;;;;27.90;17.45;;;;;;;;;;5392604;23;20301;-72
2023/03/01 04:55:38;;;;;;;29.30;16.80;;;;;;;;;;4977940;28;20223;-72
2023/03/01 04:58:05;;;;;;;29.48;17.02;;;;;;;;;;4977826;28;20574;-72
2023/03/01 05:00:32;;;;;;;29.45;16.58;;;;;;;;;;4985401;28;20210;-72
2023/03/01 05:03:01;;;;;;;29.63;17.30;;;;;;;;;;4994238;28;20227;-72
2023/03/01 05:05:29;;;;;;;28.08;17.20;;;;;;;;;;4993112;28;20547;-71
2023/03/01 05:07:57;;;;;;;31.00;17.90;;;;;;;;;;4987677;28;20203;-70
2023/03/01 05:10:26;;;;;;;27.70;17.20;;;;;;;;;;4986446;28;20663;-72
2023/03/01 05:12:53;;;;;;;23.73;16.40;;;;;;;;;;4978885;28;20224;-72
2023/03/01 05:15:21;;;;;;;26.70;17.40;;;;;;;;;;4978036;28;20219;-72
2023/03/01 05:17:48;;;;;;;32.30;17.90;;;;;;;;;;4978465;28;20234;-72
2023/03/01 05:20:16;;;;;;;28.33;17.27;;;;;;;;;;4977499;28;20218;-74
2023/03/01 05:22:43;;;;;;;25.40;16.70;;;;;;;;;;4977695;28;20231;-72
2023/03/01 05:25:10;;;;;;;24.42;16.73;;;;;;;;;;4977687;28;20204;-72
2023/03/01 05:27:38;;;;;;;27.40;16.38;;;;;;;;;;4977884;28;20199;-71
2023/03/01 05:30:13;;;;;;;30.27;17.63;;;;;;;;;;4977696;28;20210;-72
2023/03/01 05:32:40;;;;;;;32.83;18.92;;;;;;;;;;4977266;28;20229;-72
2023/03/01 05:35:08;;;;;;;28.17;17.05;;;;;;;;;;4979305;28;20223;-72
2023/03/01 05:37:35;;;;;;;29.10;17.67;;;;;;;;;;4981822;28;20258;-72
2023/03/01 05:40:05;;;;;;;29.63;18.05;;;;;;;;;;4982628;28;20203;-71
2023/03/01 05:42:32;;;;;;;27.50;17.05;;;;;;;;;;4986172;28;20227;-71
2023/03/01 05:45:00;;;;;;;30.05;17.52;;;;;;;;;;4992525;28;20203;-71
2023/03/01 05:47:27;;;;;;;26.73;16.85;;;;;;;;;;4979057;28;20211;-71
2023/03/01 05:49:54;;;;;;;36.10;19.95;;;;;;;;;;4977217;28;20211;-70
2023/03/01 05:52:21;;;;;;;32.28;19.15;;;;;;;;;;4977197;28;20580;-70
2023/03/01 05:54:49;;;;;;;30.33;18.70;;;;;;;;;;4976791;28;20219;-70
2023/03/01 05:57:16;;;;;;;30.48;18.58;;;;;;;;;;4977180;28;20188;-70
2023/03/01 05:59:43;;;;;;;29.48;18.55;;;;;;;;;;4977141;28;20545;-71
2023/03/01 06:02:11;;;;;;;29.05;17.75;;;;;;;;;;4976896;28;20219;-71
2023/03/01 06:04:38;;;;;;;29.67;18.13;;;;;;;;;;4976976;28;20207;-71
2023/03/01 06:07:05;;;;;;;26.75;17.95;;;;;;;;;;4976840;28;20203;-71
2023/03/01 06:09:32;;;;;;;28.65;18.13;;;;;;;;;;4976877;28;20207;-72
2023/03/01 06:11:59;;;;;;;31.88;18.75;;;;;;;;;;4976802;28;20206;-72
2023/03/01 06:14:26;;;;;;;32.08;19.83;;;;;;;;;;4976799;28;20210;-71
2023/03/01 06:16:54;;;;;;;32.97;18.58;;;;;;;;;;4977006;28;20743;-69
2023/03/01 06:19:22;;;;;;;33.22;18.60;;;;;;;;;;4976802;28;20229;-68
2023/03/01 06:21:49;;;;;;;31.13;19.10;;;;;;;;;;4976658;28;20210;-69
2023/03/01 06:24:16;;;;;;;32.65;18.50;;;;;;;;;;4976561;28;20199;-69
2023/03/01 06:26:43;;;;;;;31.25;18.95;;;;;;;;;;4976461;28;20207;-69
2023/03/01 06:29:10;;;;;;;36.17;18.13;;;;;;;;;;4976217;28;20689;-69
2023/03/01 06:31:37;;;;;;;30.33;18.73;;;;;;;;;;4976414;28;20208;-69
2023/03/01 06:34:04;;;;;;;33.72;18.85;;;;;;;;;;4976362;28;20231;-68
2023/03/01 06:36:32;;;;;;;29.92;17.80;;;;;;;;;;4975831;28;20607;-70
2023/03/01 06:38:59;;;;;;;34.85;18.77;;;;;;;;;;4976212;28;20206;-70
2023/03/01 06:41:26;;;;;;;28.77;17.73;;;;;;;;;;4976247;28;20210;-71
2023/03/01 06:43:54;;;;;;;29.85;17.38;;;;;;;;;;4976264;28;20230;-71
2023/03/01 06:46:22;;;;;;;28.25;18.15;;;;;;;;;;4975740;28;20626;-70
2023/03/01 06:48:49;;;;;;;34.28;19.70;;;;;;;;;;4976038;28;20343;-70
2023/03/01 06:51:16;;;;;;;33.10;21.00;;;;;;;;;;4975607;28;20319;-70
2023/03/01 06:53:44;;;;;;;32.00;18.58;;;;;;;;;;4975945;28;20234;-70
2023/03/01 06:56:11;;;;;;;29.50;18.25;;;;;;;;;;4975780;28;20270;-71
2023/03/01 06:58:38;;;;;;;31.75;18.48;;;;;;;;;;4976223;28;20203;-71
2023/03/01 07:01:07;;;;;;;30.35;19.50;;;;;;;;;;4975737;28;20572;-71
2023/03/01 07:03:34;;;;;;;29.42;18.10;;;;;;;;;;4975950;28;20227;-71
2023/03/01 07:06:01;;;;;;;26.75;17.08;;;;;;;;;;4975974;28;20203;-71
2023/03/01 07:08:28;;;;;;;30.30;18.15;;;;;;;;;;4975745;28;20207;-70
2023/03/01 07:11:01;;;;;;;29.50;17.90;;;;;;;;;;4975772;28;20218;-70
2023/03/01 07:13:28;;;;;;;30.42;17.35;;;;;;;;;;4975389;28;20589;-70
2023/03/01 07:15:55;;;;;;;34.75;18.10;;;;;;;;;;4975635;28;20215;-70
2023/03/01 07:18:23;;;;;;;26.83;17.35;;;;;;;;;;4975617;28;20277;-70
2023/03/01 07:20:50;;;;;;;30.02;17.88;;;;;;;;;;4975559;28;20204;-70
2023/03/01 07:23:17;;;;;;;29.75;18.02;;;;;;;;;;4975314;28;20223;-70
2023/03/01 07:25:43;;;;;;;26.10;17.23;;;-0.40;99.90;;;;;;4975322;28;20556;-71
2023/03/01 07:28:11;;;;;;;34.00;19.27;;;-1.30;99.90;;;;;;4975349;28;20203;-71
2023/03/01 07:30:38;;;;;;;31.00;17.95;;;-1.40;99.90;;;;;;4975379;28;20199;-71
2023/03/01 07:33:05;;;;;;;30.73;18.42;;;-1.30;99.90;;;;;;4975803;28;20243;-71
2023/03/01 07:35:33;;;;;;;33.30;18.30;;;-1.30;99.90;;;;;;4975118;28;20211;-70
2023/03/01 07:37:59;;;;;;;32.50;18.42;;;-1.20;99.90;;;;;;4974842;28;20652;-70
2023/03/01 07:40:26;;;;;;;31.85;17.73;;;-1.20;99.90;;;;;;4975197;28;20211;-70
2023/03/01 07:42:56;;;;;;;30.30;17.75;;;-1.30;99.90;;;;;;4975162;28;20590;-70
2023/03/01 07:45:24;;;;;;;28.25;18.00;;;-1.20;99.90;;;;;;4975227;28;20574;-69
2023/03/01 07:47:51;;;;;;;30.48;18.52;;;-1.20;99.90;;;;;;4975161;28;20239;-70
2023/03/01 07:50:19;;;;;;;31.25;17.95;;;-1.20;99.90;;;;;;4975047;28;20199;-70
2023/03/01 07:52:46;;;;;;;29.75;17.70;;;-1.20;99.90;;;;;;4974941;28;20223;-70
2023/03/01 07:55:13;;;;;;;29.30;17.63;;;-1.20;99.90;;;;;;4974800;28;20215;-70
2023/03/01 07:57:40;;;;;;;31.48;17.70;;;-1.20;99.90;;;;;;4974493;28;20693;-70
2023/03/01 08:00:10;;;;;;;24.67;16.67;;;-1.20;99.90;;;;;;4974954;28;20199;-70
2023/03/01 08:02:40;;;;;;;28.50;17.40;;;-1.20;99.90;;;;;;4974641;28;20246;-70
2023/03/01 08:05:07;;;;;;;30.10;18.02;;;-1.20;99.90;;;;;;4974874;28;20627;-70
2023/03/01 08:07:34;;;;;;;29.63;17.38;;;-1.20;99.90;;;;;;4975408;28;20200;-70
2023/03/01 08:10:00;;;;;;;32.05;16.65;;;-1.20;99.90;;;;;;4974482;28;20675;-70
2023/03/01 08:12:28;;;;;;;30.48;18.20;;;-1.20;99.90;;;;;;4974710;28;20219;-70
2023/03/01 08:14:55;;;;;;;27.77;17.48;;;-1.20;99.90;;;;;;4974830;28;20243;-70
2023/03/01 08:17:22;;;;;;;27.30;17.95;;;-1.20;99.90;;;;;;4974836;28;20219;-70
2023/03/01 08:19:50;;;;;;;32.10;17.65;;;-1.10;99.90;;;;;;4974666;28;20214;-70
2023/03/01 08:22:16;;;;;;;27.20;17.55;;;-1.10;99.90;;;;;;4974393;28;20702;-70
2023/03/01 08:24:43;;;;;;;31.42;18.52;;;-1.10;99.90;;;;;;4974795;28;20230;-70
2023/03/01 08:27:11;;;;;;;31.80;17.98;;;-1.10;99.90;;;;;;4974898;28;20203;-70
2023/03/01 08:29:38;;;;;;;30.98;17.90;;;-1.10;99.90;;;;;;4974761;28;20210;-70
2023/03/01 08:32:05;;;;;;;29.45;16.67;;;-1.10;99.90;;;;;;4974675;28;20227;-70
2023/03/01 08:34:32;;;;;;;32.10;18.02;;;-1.10;99.90;;;;;;4974445;28;20576;-69
2023/03/01 08:37:00;;;;;;;26.80;17.88;;;-1.10;99.90;;;;;;4974678;28;20227;-69
2023/03/01 08:39:27;;;;;;;27.60;16.80;;;-1.10;99.90;;;;;;4974713;28;20206;-69
2023/03/01 08:41:53;;;;;;;25.45;16.77;;;-1.10;99.90;;;;;;4974504;28;20199;-71
2023/03/01 08:44:20;;;;;;;25.75;16.85;;;-1.10;99.90;;;;;;4974486;28;20203;-70
2023/03/01 08:46:49;;;;;;;31.77;17.67;;;-1.10;99.90;;;;;;4974597;28;20203;-70
2023/03/01 08:49:18;;;;;;;29.35;18.58;;;-1.10;99.90;;;;;;4974183;28;20674;-70
2023/03/01 08:51:45;;;;;;;29.17;17.25;;;-1.10;99.90;;;;;;4974270;28;20203;-70
2023/03/01 08:54:16;;;;;;;32.45;18.70;;;-1.10;99.90;;;;;;4974660;28;20211;-70
2023/03/01 08:56:43;;;;;;;27.40;16.92;;;-1.00;99.90;;;;;;4974437;28;20215;-70
2023/03/01 08:59:11;;;;;;;28.67;17.17;;;-1.00;99.90;;;;;;4974459;28;20213;-70
2023/03/01 09:01:37;;;;;;;29.55;16.95;;;-1.00;99.90;;;;;;4974381;28;20203;-70
2023/03/01 09:04:04;;;;;;;28.23;17.38;;;-1.00;99.90;;;;;;4974230;28;20260;-70
2023/03/01 09:06:32;;;;;;;33.25;18.40;;;-1.00;99.90;;;;;;4974364;28;20211;-70
2023/03/01 09:08:59;;;;;;;29.45;16.73;;;-1.00;99.90;;;;;;4974282;28;20210;-70
2023/03/01 09:11:29;;;;;;;33.95;16.65;;;-1.00;99.90;;;;;;4974216;28;20210;-70
2023/03/01 09:13:56;;;;;;;29.50;18.10;;;-1.00;99.90;;;;;;4976126;28;20730;-70
2023/03/01 09:16:24;;;;;;;27.20;16.48;;;-0.90;99.90;;;;;;4977888;28;20220;-70
2023/03/01 09:18:51;;;;;;;27.08;16.55;;;-0.90;99.90;;;;;;4977714;28;20207;-70
2023/03/01 09:21:20;;;;;;;26.88;17.17;;;-0.90;99.90;;;;;;4977661;28;20230;-70
2023/03/01 09:23:48;;;;;;;23.35;15.25;;;-0.90;99.90;;;;;;4977604;28;20278;-70
2023/03/01 09:26:18;;;;;;;28.23;16.65;;;-0.90;99.90;;;;;;4977709;28;20230;-70
2023/03/01 09:28:47;;;;;;;27.05;15.80;;;-0.80;99.90;;;;;;4977609;28;20195;-70
2023/03/01 09:31:15;;;;;;;25.95;16.27;;;-0.80;99.90;;;;;;4977629;28;20210;-70
2023/03/01 09:33:43;;;;;;;27.17;16.85;;;-0.80;99.90;;;;;;4977596;28;20223;-70
2023/03/01 09:36:13;;;;;;;32.10;17.83;;;-0.80;99.90;;;;;;4977067;28;20207;-70
2023/03/01 09:38:39;;;;;;;30.13;16.92;;;-0.80;99.90;;;;;;4977220;28;20214;-70
2023/03/01 09:41:11;;;;;;;27.27;16.50;;;-0.80;99.90;;;;;;4977560;28;20199;-70
2023/03/01 09:43:47;;;;;;;29.20;16.63;;;-0.80;99.90;;;;;;4977336;28;20223;-70
2023/03/01 09:46:16;;;;;;;32.03;17.25;;;-0.80;99.90;;;;;;4977133;28;20523;-70
2023/03/01 09:48:47;;;;;;;28.95;17.02;;;-0.80;99.90;;;;;;4977176;28;20238;-70
2023/03/01 09:51:19;;;;;;;28.75;15.95;;;-0.80;99.90;;;;;;4976920;28;20191;-70
2023/03/01 09:53:46;;;;;;;28.35;17.30;;;-0.80;99.90;;;;;;4977280;28;20275;-70
2023/03/01 09:56:20;;;;;;;26.15;16.08;;;-0.80;99.90;;;;;;4976665;28;20222;-70
2023/03/01 09:58:56;;;;;;;25.50;16.15;;;-0.70;99.90;;;;;;4977028;28;20198;-70
2023/03/01 10:01:32;;;;;;;26.95;16.50;;;-0.70;99.90;;;;;;4977452;28;20609;-70
2023/03/01 10:04:12;;;;;;;27.00;16.25;;;-0.60;99.90;;;;;;4976892;28;20230;-70
2023/03/01 10:06:41;;;;;;;25.60;16.20;;;-0.60;99.90;;;;;;4976910;28;20598;-70
2023/03/01 10:09:14;;;;;;;32.65;18.17;;;-0.60;99.90;;;;;;4976937;28;20211;-70
2023/03/01 10:11:45;;;;;;;27.55;15.52;;;-0.70;99.90;;;;;;4976942;28;20192;-69
2023/03/01 10:14:23;;;;;;;28.17;16.85;;;-0.70;99.90;;;;;;4976881;28;20188;-70
2023/03/01 10:16:58;;;;;;;25.75;16.50;;;-0.70;99.90;;;;;;4976719;28;20211;-70
2023/03/01 10:19:31;;;;;;;26.85;17.20;;;-0.70;99.90;;;;;;4976797;28;20222;-70
2023/03/01 10:22:03;;;;;;;30.27;17.95;;;-0.60;99.90;;;;;;4976656;28;20198;-70
2023/03/01 10:24:35;;;;;;;28.90;16.67;;;-0.60;99.90;;;;;;4976450;28;20187;-70
2023/03/01 10:27:06;;;;;;;29.20;17.45;;;-0.60;99.90;;;;;;4976599;28;20234;-70
2023/03/01 10:29:40;;;;;;;26.45;15.15;;;-0.60;99.90;;;;;;4976310;28;20663;-70
2023/03/01 10:32:10;;;;;;;27.25;15.73;;;-0.60;99.90;;;;;;4982195;28;20238;-70
2023/03/01 10:34:37;;;;;;;29.40;16.33;;;-0.60;99.90;;;;;;4978133;28;20188;-70
2023/03/01 10:37:12;;;;;;;26.38;15.95;;;-0.50;99.90;;;;;;4976363;28;20223;-70
2023/03/01 10:39:56;;;;;;;27.50;16.42;;;-0.50;99.90;;;;;;4976516;28;20194;-70
2023/03/01 10:42:28;;;;;;;24.52;16.35;;;-0.40;99.90;;;;;;4976109;28;20251;-71
2023/03/01 10:44:55;;;;;;;31.60;17.27;;;-0.40;99.90;;;;;;4976188;28;20215;-71
2023/03/01 10:47:25;;;;;;;29.50;14.23;;;-0.40;99.90;;;;;;4976113;28;20195;-71
2023/03/01 10:49:57;;;;;;;27.15;16.58;;;-0.30;99.90;;;;;;4977387;28;20183;-71
2023/03/01 10:52:26;;;;;;;25.30;15.00;;;-0.40;99.90;;;;;;4977745;28;20223;-71
2023/03/01 10:54:55;;;;;;;25.05;14.85;;;-0.30;99.90;;;;;;4977546;28;20212;-71
2023/03/01 10:57:36;;;;;;;26.73;16.08;;;-0.30;99.90;;;;;;4976835;28;20223;-71
2023/03/01 11:00:22;;;;;;;22.73;13.85;;;-0.30;99.90;;;;;;4976433;28;20215;-71
2023/03/01 11:02:52;;;;;;;27.85;16.10;;;-0.30;99.90;;;;;;4975849;28;20219;-71
2023/03/01 11:05:24;;;;;;;25.40;15.93;;;-0.30;99.90;;;;;;4976363;28;20578;-72
2023/03/01 11:07:53;;;;;;;29.13;16.38;;;-0.20;99.90;;;;;;4976483;28;20250;-72
2023/03/01 11:10:22;;;;;;;26.08;15.00;;;-0.20;99.90;;;;;;4976602;28;20675;-70
2023/03/01 11:12:49;;;;;;;25.30;15.40;;;;;;;;;;4976223;28;20584;-71
2023/03/01 11:15:28;;;;;;;25.70;16.00;;;-0.10;99.90;;;;;;4977885;28;20288;-71
2023/03/01 11:17:57;;;;;;;28.92;16.02;;;-0.10;99.90;;;;;;4978798;28;20207;-71
2023/03/01 11:20:31;;;;;;;20.13;14.65;;;-0.10;99.90;;;;;;4979305;28;20200;-71
2023/03/01 11:23:03;;;;;;;28.55;16.60;;;-0.10;99.90;;;;;;4979299;28;20574;-71
2023/03/01 11:25:36;;;;;;;27.13;15.52;;;0.00;99.90;;;;;;4976736;28;20184;-71
2023/03/01 11:28:05;;;;;;;27.48;16.90;;;0.00;99.90;;;;;;4976783;28;20191;-71
2023/03/01 11:30:39;;;;;;;28.35;16.13;;;0.10;99.90;;;;;;4975752;28;20200;-71
2023/03/01 11:33:16;;;;;;;26.38;15.75;;;0.20;99.90;;;;;;4975692;28;20234;-71
2023/03/01 11:35:48;;;;;;;27.17;16.30;;;0.20;99.90;;;;;;4975462;28;20246;-71
2023/03/01 11:38:22;;;;;;;32.42;17.23;;;0.20;99.90;;;;;;4975460;28;20573;-71
2023/03/01 11:40:53;;;;;;;27.48;16.67;;;0.30;99.90;;;;;;4975944;28;20194;-72
2023/03/01 11:43:29;;;;;;;26.70;16.35;;;0.30;99.90;;;;;;4975767;28;20219;-72
2023/03/01 11:46:21;;;;;;;23.90;15.95;;;0.30;99.90;;;;;;4975856;28;20191;-72
2023/03/01 11:48:59;;;;;;;26.98;16.58;;;0.50;99.90;;;;;;4975699;28;20206;-72
2023/03/01 11:51:39;;;;;;;28.50;16.25;;;0.50;99.90;;;;;;4975345;28;20686;-71
2023/03/01 11:54:15;;;;;;;27.67;17.35;;;0.60;99.90;;;;;;4975526;28;20219;-71
2023/03/01 11:56:47;;;;;;;27.15;15.57;;;0.50;99.90;;;;;;4975634;28;20187;-71
2023/03/01 11:59:43;;;;;;;28.55;17.63;;;0.50;99.90;;;;;;4975547;28;20183;-71
2023/03/01 12:02:41;;;;;;;26.60;17.55;;;0.40;99.90;;;;;;4975193;28;20227;-71
2023/03/01 12:05:29;;;;;;;28.85;17.88;;;0.40;99.90;;;;;;4975327;28;20196;-71
2023/03/01 12:08:02;;;;;;;26.02;16.33;;;0.40;99.90;;;;;;4975194;28;20194;-71
2023/03/01 12:10:32;;;;;;;28.35;16.70;;;0.50;99.90;;;;;;4975224;28;20208;-70
2023/03/01 12:13:24;;;;;;;30.92;15.93;;;0.60;99.90;;;;;;4974891;28;20230;-71
2023/03/01 12:16:21;;;;;;;26.33;16.60;;;0.60;99.90;;;;;;4974855;28;20199;-71
2023/03/01 12:19:03;;;;;;;26.02;15.98;;;0.60;99.90;;;;;;4974908;28;20214;-71
2023/03/01 12:21:48;;;;;;;30.38;17.27;;;0.70;99.90;;;;;;4974427;28;20191;-71
2023/03/01 12:24:44;;;;;;;25.92;17.00;;;0.70;99.90;;;;;;4974738;28;20194;-71
2023/03/01 12:27:24;;;;;;;26.88;16.58;;;0.70;99.90;;;;;;4974795;28;20188;-71
2023/03/01 12:29:58;;;;;;;30.77;17.08;;;0.70;99.90;;;;;;4974762;28;20192;-71
2023/03/01 12:32:36;;;;;;;31.60;17.63;;;0.70;99.90;;;;;;4974753;28;20230;-71
2023/03/01 12:35:29;;;;;;;30.90;17.63;;;0.70;99.90;;;;;;4974381;28;20191;-71
2023/03/01 12:38:05;;;;;;;33.00;17.45;;;0.70;99.90;;;;;;4968395;28;20223;-72
2023/03/01 12:41:03;;;;;;;33.22;18.27;;;0.80;99.90;;;;;;4974311;28;20548;-71
2023/03/01 12:43:45;;;;;;;29.15;17.33;;;0.90;99.90;;;;;;4974650;28;20281;-71
2023/03/01 12:46:21;;;;;;;27.08;17.48;;;1.10;99.90;;;;;;4974724;28;20184;-71
2023/03/01 12:48:57;;;;;;;26.98;17.45;;;1.10;99.90;;;;;;4976796;28;20558;-71
2023/03/01 12:51:27;;;;;;;27.38;17.30;;;1.30;99.90;;;;;;4978494;28;20183;-71
2023/03/01 12:53:58;;;;;;;28.50;16.23;;;1.20;99.90;;;;;;4978410;28;20590;-71
2023/03/01 12:56:27;;;;;;;31.85;17.48;;;1.20;99.90;;;;;;4978121;28;20242;-71
2023/03/01 12:59:03;;;;;;;32.10;19.63;;;1.30;99.90;;;;;;4978162;28;20223;-71
2023/03/01 13:01:41;;;;;;;34.90;17.77;;;1.30;99.90;;;;;;4978736;28;20191;-70
2023/03/01 13:04:33;;;;;;;32.05;18.65;;;1.30;99.90;;;;;;4978142;28;20191;-70
2023/03/01 13:07:12;;;;;;;22.77;15.48;;;1.40;99.90;;;;;;4978139;28;20191;-73
2023/03/01 13:09:47;;;;;;;27.65;16.60;;;1.50;99.90;;;;;;4978063;28;20198;-73
2023/03/01 13:12:53;;;;;;;25.67;17.50;;;1.50;99.90;;;;;;4978529;28;20218;-73
2023/03/01 13:15:34;;;;;;;28.38;16.83;;;1.40;99.90;;;;;;4977954;28;20203;-73
2023/03/01 13:18:03;;;;;;;29.02;16.80;;;1.50;99.90;;;;;;4977849;28;20242;-74
2023/03/01 13:20:45;;;;;;;23.33;15.57;;;1.60;99.90;;;;;;4977761;28;20212;-74
2023/03/01 13:23:24;;;;;;;28.85;16.65;;;1.60;99.90;;;;;;4977733;28;20223;-72
2023/03/01 13:26:21;;;;;;;29.77;17.55;;;1.60;99.90;;;;;;4977720;28;20250;-73
2023/03/01 13:28:56;;;;;;;29.65;16.25;;;1.60;99.90;;;;;;4977540;28;20184;-73
2023/03/01 13:32:04;;;;;;;26.85;17.17;;;1.60;99.90;;;;;;4977891;28;20203;-73
2023/03/01 13:34:48;;;;;;;31.15;17.08;;;1.60;99.90;;;;;;4948219;28;20203;-73
2023/03/01 13:37:29;;;;;;;26.63;16.35;;;1.60;99.90;;;;;;4977476;28;20187;-73
2023/03/01 13:39:58;;;;;;;29.33;16.02;;;1.60;99.90;;;;;;4977426;28;20192;-73
2023/03/01 13:42:39;;;;;;;32.22;16.40;;;1.60;99.90;;;;;;4977276;28;20251;-73
2023/03/01 13:45:21;;;;;;;27.75;17.33;;;1.60;99.90;;;;;;4977616;28;20278;-72
2023/03/01 13:47:51;;;;;;;29.80;17.15;;;1.70;99.90;;;;;;4977462;28;20222;-73
2023/03/01 13:50:21;;;;;;;28.05;16.50;;;1.70;99.90;;;;;;4977364;28;20187;-73
2023/03/01 13:52:53;;;;;;;27.27;16.92;;;1.70;99.90;;;;;;4977273;28;20622;-73
2023/03/01 13:55:25;;;;;;;28.73;16.58;;;1.70;99.90;;;;;;4977126;28;20246;-73
2023/03/01 13:57:57;;;;;;;24.35;15.05;;;1.70;99.90;;;;;;4976991;28;20203;-73
2023/03/01 14:00:37;;;;;;;23.83;15.65;;;;;;;;;;4976394;28;20184;-73
2023/03/01 14:03:06;;;;;;;25.70;15.63;;;1.60;99.90;;;;;;4977212;28;20223;-73
2023/03/01 14:05:35;;;;;;;22.80;15.55;;;1.50;99.90;;;;;;4976956;28;20548;-72
2023/03/01 14:08:02;;;;;;;31.08;16.58;;;1.50;99.90;;;;;;4977233;28;20225;-72
2023/03/01 14:10:45;;;;;;;27.42;16.27;;;1.60;99.90;;;;;;4977028;28;20204;-72
2023/03/01 14:13:29;;;;;;;33.47;18.70;;;1.50;99.90;;;;;;4977155;28;20227;-72
2023/03/01 14:16:13;;;;;;;26.33;17.05;;;1.50;99.90;;;;;;4976786;28;20234;-73
2023/03/01 14:18:48;;;;;;;26.50;15.57;;;1.50;99.90;;;;;;4977003;28;20215;-75
2023/03/01 14:21:16;;;;;;;32.40;17.90;;;1.50;99.90;;;;;;4977318;28;20194;-75
2023/03/01 14:23:43;;;;;;;28.05;16.75;;;1.50;99.90;;;;;;4977183;28;20227;-73
2023/03/01 14:26:11;;;;;;;25.25;16.38;;;1.60;99.90;;;;;;4976838;28;20191;-75
2023/03/01 14:28:40;;;;;;;26.33;17.15;;;1.60;99.90;;;;;;4977052;28;20196;-74
2023/03/01 14:31:36;;;;;;;27.60;16.30;;;1.60;99.90;;;;;;4976870;28;20211;-74
2023/03/01 14:34:05;;;;;;;28.23;16.05;;;1.60;99.90;;;;;;4976753;28;20230;-74
2023/03/01 14:36:33;;;;;;;24.98;16.08;;;1.60;99.90;;;;;;4977718;28;20207;-73
2023/03/01 14:39:04;;;;;;;26.95;17.50;;;1.60;99.90;;;;;;4976586;28;20231;-72
2023/03/01 14:41:34;;;;;;;27.48;17.50;;;1.60;99.90;;;;;;4976549;28;20258;-72
2023/03/01 14:44:06;;;;;;;25.95;17.20;;;1.60;99.90;;;;;;4976159;28;20606;-72
2023/03/01 14:46:36;;;;;;;25.63;17.25;;;1.60;99.90;;;;;;4976465;28;20242;-71
2023/03/01 14:49:05;;;;;;;26.77;16.85;;;1.60;99.90;;;;;;4976432;28;20195;-71
2023/03/01 14:51:37;;;;;;;25.63;17.67;;;1.70;99.90;;;;;;4976414;28;20203;-71
2023/03/01 14:54:04;;;;;;;30.40;16.65;;;1.70;99.90;;;;;;4976056;28;20286;-71
2023/03/01 14:56:44;;;;;;;27.83;17.75;;;1.70;99.90;;;;;;4975729;28;20293;-71
2023/03/01 14:59:13;;;;;;;28.05;17.23;;;1.60;99.90;;;;;;4975883;28;20671;-71
2023/03/01 15:01:42;;;;;;;27.50;17.20;;;1.50;99.90;;;;;;4976834;28;20230;-71
2023/03/01 15:04:13;;;;;;;29.88;17.83;;;1.50;99.90;;;;;;4976472;28;20251;-70
2023/03/01 15:06:41;;;;;;;30.40;17.90;;;1.50;99.90;;;;;;4976501;28;20237;-69
2023/03/01 15:09:12;;;;;;;28.60;17.02;;;1.50;99.90;;;;;;4975845;28;20663;-70
2023/03/01 15:11:43;;;;;;;27.67;17.88;;;1.60;99.90;;;;;;4975875;28;20195;-70
2023/03/01 15:14:30;;;;;;;27.08;17.48;;;1.60;99.90;;;;;;4976075;28;20278;-70
2023/03/01 15:16:57;;;;;;;26.27;16.20;;;1.60;99.90;;;;;;4975887;28;20184;-71
2023/03/01 15:19:28;;;;;;;25.23;17.13;;;1.60;99.90;;;;;;4975739;28;20223;-70
2023/03/01 15:21:54;;;;;;;28.67;18.10;;;1.70;99.90;;;;;;4975423;28;20188;-69
2023/03/01 15:24:25;;;;;;;30.33;18.30;;;1.70;99.90;;;;;;4976082;28;20229;-71
2023/03/01 15:26:57;;;;;;;28.52;17.63;;;1.80;99.90;;;;;;4981469;28;20195;-72
2023/03/01 15:29:29;;;;;;;29.92;16.88;;;1.80;99.90;;;;;;4985851;28;20188;-72
2023/03/01 15:32:00;;;;;;;26.40;16.80;;;1.90;99.90;;;;;;4984943;28;20192;-73
2023/03/01 15:34:30;;;;;;;30.05;17.48;;;1.80;99.90;;;;;;4976584;28;20219;-72
2023/03/01 15:36:58;;;;;;;23.98;15.63;;;1.80;99.90;;;;;;4975648;28;20192;-71
2023/03/01 15:39:37;;;;;;;30.77;17.67;;;1.90;99.90;;;;;;4975222;28;20281;-71
2023/03/01 15:42:06;;;;;;;25.25;16.80;;;1.90;99.90;;;;;;4975066;28;20673;-71
2023/03/01 15:44:34;;;;;;;28.85;17.63;;;1.90;99.90;;;;;;4975240;28;20241;-71
2023/03/01 15:47:05;;;;;;;32.72;19.25;;;1.90;99.90;;;;;;4975436;28;20211;-71
2023/03/01 15:49:38;;;;;;;29.48;18.27;;;2.00;99.90;;;;;;4975164;28;20194;-71
2023/03/01 15:52:09;;;;;;;26.60;17.33;;;1.90;99.90;;;;;;4974829;28;20690;-71
2023/03/01 15:54:37;;;;;;;27.60;17.13;;;2.00;99.90;;;;;;4974923;28;20218;-71
2023/03/01 15:57:04;;;;;;;30.88;18.88;;;2.10;99.90;;;;;;4975164;28;20195;-71
2023/03/01 15:59:31;;;;;;;27.02;17.60;;;2.10;99.90;;;;;;4975026;28;20223;-71
2023/03/01 16:01:57;;;;;;;26.58;17.90;;;2.10;99.90;;;;;;4975028;28;20211;-72
2023/03/01 16:04:25;;;;;;;27.50;18.08;;;2.10;99.90;;;;;;4974804;28;20240;-72
2023/03/01 16:06:54;;;;;;;31.13;18.25;;;2.10;99.90;;;;;;4974855;28;20210;-71
2023/03/01 16:09:23;;;;;;;29.48;18.00;;;2.10;99.90;;;;;;4974821;28;20219;-71
2023/03/01 16:11:51;;;;;;;27.27;18.05;;;2.10;99.90;;;;;;4974827;28;20209;-72
2023/03/01 16:14:18;;;;;;;33.33;19.42;;;2.10;99.90;;;;;;4974769;28;20203;-71
2023/03/01 16:16:45;;;;;;;34.53;20.00;;;2.20;99.90;;;;;;4975250;28;20214;-71
2023/03/01 16:19:13;;;;;;;29.48;18.77;;;2.20;99.90;;;;;;4974812;28;20250;-75
2023/03/01 16:21:42;;;;;;;30.38;18.65;;;2.20;99.90;;;;;;4975007;28;20576;-72
2023/03/01 16:24:09;;;;;;;32.83;19.33;;;2.10;99.90;;;;;;4978616;28;20227;-71
2023/03/01 16:26:37;;;;;;;29.92;18.35;;;2.10;99.90;;;;;;4978807;28;20207;-75
2023/03/01 16:29:04;;;;;;;34.17;19.73;;;2.10;99.90;;;;;;4979025;28;20202;-73
2023/03/01 16:31:31;;;;;;;29.85;19.40;;;2.00;99.90;;;;;;4978714;28;20570;-70
2023/03/01 16:33:59;;;;;;;27.00;17.77;;;1.90;99.90;;;;;;4978583;28;20278;-70
2023/03/01 16:36:28;;;;;;;26.30;17.25;;;1.80;99.90;;;;;;4978214;28;20614;-71
2023/03/01 16:38:58;;;;;;;27.20;17.10;;;1.70;99.90;;;;;;4978058;28;20706;-71
2023/03/01 16:41:25;;;;;;;27.38;16.67;;;1.60;99.90;;;;;;4978494;28;20191;-70
2023/03/01 16:43:52;;;;;;;26.83;17.48;;;1.60;99.90;;;;;;4978351;28;20232;-71
2023/03/01 16:46:21;;;;;;;26.45;16.50;;;1.50;99.90;;;;;;4978527;28;20191;-72
2023/03/01 16:48:48;;;;;;;31.48;18.52;;;1.40;99.90;;;;;;4978350;28;20203;-72
2023/03/01 16:51:16;;;;;;;31.40;18.98;;;1.40;99.90;;;;;;4978092;28;20701;-71
2023/03/01 16:53:44;;;;;;;27.38;17.40;;;1.40;99.90;;;;;;4978238;28;20230;-71
2023/03/01 16:56:15;;;;;;;28.40;17.92;;;1.30;99.90;;;;;;4979947;28;20246;-71
2023/03/01 16:58:46;;;;;;;26.60;16.50;;;1.30;99.90;;;;;;4984033;28;20226;-71
2023/03/01 17:01:16;;;;;;;30.23;18.00;;;1.20;99.90;;;;;;4978924;28;20673;-71
2023/03/01 17:03:45;;;;;;;27.63;17.45;;;1.10;99.90;;;;;;4978506;28;20219;-70
2023/03/01 17:06:16;;;;;;;26.10;16.90;;;1.00;99.90;;;;;;4978061;28;20239;-71
2023/03/01 17:08:43;;;;;;;28.77;16.92;;;0.90;99.90;;;;;;4977878;28;20199;-71
2023/03/01 17:11:14;;;;;;;26.85;16.75;;;0.80;99.90;;;;;;4977651;28;20218;-70
2023/03/01 17:13:45;;;;;;;25.08;16.80;;;0.80;99.90;;;;;;4977981;28;20223;-71
2023/03/01 17:16:17;;;;;;;32.05;18.90;;;0.70;99.90;;;;;;4978183;28;20191;-71
2023/03/01 17:18:45;;;;;;;28.30;18.33;;;0.70;99.90;;;;;;4976808;28;20298;-71
2023/03/01 17:21:16;;;;;;;30.60;18.17;;;0.60;99.90;;;;;;4977752;28;20705;-71
2023/03/01 17:23:46;;;;;;;27.85;18.70;;;0.60;99.90;;;;;;4978175;28;20238;-71
2023/03/01 17:26:16;;;;;;;28.85;18.17;;;0.60;99.90;;;;;;4977895;28;20195;-71
2023/03/01 17:28:50;;;;;;;27.55;17.90;;;0.60;99.90;;;;;;4983080;28;20191;-71
2023/03/01 17:31:18;;;;;;;32.50;19.38;;;0.60;99.90;;;;;;4987070;28;20195;-72
2023/03/01 17:33:46;;;;;;;29.92;17.17;;;0.60;99.90;;;;;;4985495;28;20232;-72
2023/03/01 17:36:12;;;;;;;28.65;17.60;;;0.60;99.90;;;;;;4987241;28;20295;-71
2023/03/01 17:38:40;;;;;;;30.58;18.83;;;0.70;99.90;;;;;;4982559;28;20203;-72
2023/03/01 17:41:06;;;;;;;30.52;20.00;;;0.70;99.90;;;;;;4977842;28;20203;-71
2023/03/01 17:43:38;;;;;;;27.48;18.70;;;0.70;99.90;;;;;;4977638;28;20226;-74
2023/03/01 17:46:05;;;;;;;31.02;19.52;;;0.80;99.90;;;;;;4977383;28;20243;-76
2023/03/01 17:48:35;;;;;;;32.00;21.05;;;0.80;99.90;;;;;;4977386;28;20211;-74
2023/03/01 17:51:07;;;;;;;34.05;21.38;;;0.90;99.90;;;;;;4977401;28;20685;-74
2023/03/01 17:53:34;;;;;;;44.90;23.67;;;1.00;99.90;;;;;;4977547;28;20223;-72
2023/03/01 17:56:02;;;;;;;34.78;22.33;;;1.10;99.90;;;;;;4977355;28;20236;-72
2023/03/01 17:58:29;;;;;;;37.88;22.42;;;1.10;99.90;;;;;;4977128;28;20790;-72
2023/03/01 18:01:07;;;;;;;37.25;22.35;;;1.20;99.90;;;;;;4976812;28;20678;-72
2023/03/01 18:03:34;;;;;;;37.30;23.35;;;1.20;99.90;;;;;;4977462;28;20230;-70
2023/03/01 18:06:01;;;;;;;34.70;21.10;;;1.20;99.90;;;;;;4977121;28;20203;-70